createdAt,value
2017-07-07T00:00:57.354Z,41.33
2017-07-07T00:01:58.027Z,41.04
2017-07-07T00:02:58.645Z,41.23
2017-07-07T00:03:59.267Z,42.00
2017-07-07T00:04:59.885Z,41.90
2017-07-07T00:06:00.506Z,41.42
2017-07-07T00:07:01.184Z,41.13
2017-07-07T00:08:01.799Z,41.33
2017-07-07T00:09:02.419Z,41.80
2017-07-07T00:10:03.064Z,41.80
2017-07-07T00:11:03.749Z,41.61
2017-07-07T00:12:04.431Z,42.38
2017-07-07T00:13:05.038Z,41.71
2017-07-07T00:14:05.689Z,42.29
2017-07-07T00:15:06.335Z,42.10
2017-07-07T00:16:06.941Z,42.19
2017-07-07T00:17:07.613Z,42.19
2017-07-07T00:18:08.233Z,42.19
2017-07-07T00:19:08.851Z,42.19
2017-07-07T00:20:09.473Z,42.10
2017-07-07T00:21:10.093Z,42.29
2017-07-07T00:22:10.761Z,41.90
2017-07-07T00:23:11.380Z,41.90
2017-07-07T00:24:12.000Z,42.29
2017-07-07T00:25:12.652Z,41.52
2017-07-07T00:26:13.277Z,41.61
2017-07-07T00:27:13.982Z,41.42
2017-07-07T00:28:14.600Z,41.61
2017-07-07T00:29:15.259Z,42.00
2017-07-07T00:30:15.874Z,41.42
2017-07-07T00:31:16.496Z,41.61
2017-07-07T00:32:17.166Z,41.80
2017-07-07T00:33:17.787Z,41.61
2017-07-07T00:34:18.407Z,41.61
2017-07-07T00:35:19.050Z,41.80
2017-07-07T00:36:19.656Z,41.71
2017-07-07T00:37:20.365Z,41.42
2017-07-07T00:38:20.985Z,41.52
2017-07-07T00:39:21.637Z,41.52
2017-07-07T00:40:22.257Z,42.00
2017-07-07T00:41:22.909Z,42.00
2017-07-07T00:42:23.605Z,41.13
2017-07-07T00:43:24.212Z,41.52
2017-07-07T00:44:24.835Z,41.71
2017-07-07T00:45:25.454Z,42.00
2017-07-07T00:46:26.073Z,42.00
2017-07-07T00:47:26.770Z,41.52
2017-07-07T00:48:27.374Z,41.90
2017-07-07T00:49:27.994Z,41.52
2017-07-07T00:50:28.645Z,41.80
2017-07-07T00:51:29.265Z,41.42
2017-07-07T00:52:29.934Z,41.42
2017-07-07T00:53:30.555Z,42.27
2017-07-07T00:54:31.176Z,42.07
2017-07-07T00:55:31.795Z,42.17
2017-07-07T00:56:32.452Z,42.07
2017-07-07T00:57:33.066Z,42.07
2017-07-07T00:58:33.686Z,41.97
2017-07-07T00:59:34.311Z,42.27
2017-07-07T01:00:34.962Z,42.27
2017-07-07T01:01:35.583Z,42.17
2017-07-07T01:02:36.254Z,42.07
2017-07-07T01:03:36.876Z,41.78
2017-07-07T01:04:37.492Z,42.07
2017-07-07T01:05:38.113Z,42.17
2017-07-07T01:06:38.735Z,42.07
2017-07-07T01:07:39.410Z,42.19
2017-07-07T01:08:40.026Z,42.07
2017-07-07T01:09:40.645Z,42.36
2017-07-07T01:10:41.266Z,41.88
2017-07-07T01:11:41.891Z,42.17
2017-07-07T01:12:42.559Z,42.27
2017-07-07T01:13:43.179Z,42.36
2017-07-07T01:14:43.797Z,42.55
2017-07-07T01:15:44.443Z,42.55
2017-07-07T01:16:45.079Z,42.74
2017-07-07T01:17:45.734Z,42.74
2017-07-07T01:18:46.356Z,43.03
2017-07-07T01:19:46.973Z,43.23
2017-07-07T01:20:47.594Z,42.84
2017-07-07T01:21:48.212Z,43.23
2017-07-07T01:22:48.880Z,43.23
2017-07-07T01:23:49.502Z,43.51
2017-07-07T01:24:50.120Z,43.51
2017-07-07T01:25:50.738Z,43.60
2017-07-07T01:26:51.358Z,43.51
2017-07-07T01:27:52.025Z,43.41
2017-07-07T01:28:52.683Z,43.41
2017-07-07T01:29:53.284Z,43.80
2017-07-07T01:30:53.902Z,43.41
2017-07-07T01:31:54.520Z,43.41
2017-07-07T01:32:55.195Z,43.60
2017-07-07T01:33:55.812Z,43.70
2017-07-07T01:34:56.432Z,43.60
2017-07-07T01:35:57.084Z,43.70
2017-07-07T01:36:57.686Z,43.41
2017-07-07T01:37:58.388Z,43.23
2017-07-07T01:38:59.008Z,43.23
2017-07-07T01:39:59.626Z,43.23
2017-07-07T01:41:00.248Z,43.03
2017-07-07T01:42:00.871Z,42.65
2017-07-07T01:43:01.537Z,42.94
2017-07-07T01:44:02.158Z,42.57
2017-07-07T01:45:02.778Z,42.36
2017-07-07T01:46:03.395Z,42.74
2017-07-07T01:47:04.015Z,42.55
2017-07-07T01:48:04.690Z,42.46
2017-07-07T01:49:05.312Z,42.57
2017-07-07T01:50:05.929Z,42.55
2017-07-07T01:51:06.571Z,42.65
2017-07-07T01:52:07.177Z,42.74
2017-07-07T01:53:07.847Z,42.65
2017-07-07T01:54:08.466Z,42.74
2017-07-07T01:55:09.086Z,42.46
2017-07-07T01:56:09.707Z,42.57
2017-07-07T01:57:10.352Z,42.47
2017-07-07T01:58:11.007Z,42.36
2017-07-07T01:59:11.661Z,42.46
2017-07-07T02:00:12.282Z,42.46
2017-07-07T02:01:12.904Z,42.55
2017-07-07T02:02:13.555Z,42.38
2017-07-07T02:03:14.224Z,42.38
2017-07-07T02:04:14.844Z,42.27
2017-07-07T02:05:15.495Z,42.17
2017-07-07T02:06:16.116Z,42.19
2017-07-07T02:07:16.740Z,42.07
2017-07-07T02:08:17.408Z,42.36
2017-07-07T02:09:18.028Z,41.97
2017-07-07T02:10:18.649Z,42.17
2017-07-07T02:11:19.297Z,42.07
2017-07-07T02:12:19.916Z,41.97
2017-07-07T02:13:20.586Z,42.27
2017-07-07T02:14:21.206Z,42.07
2017-07-07T02:15:21.825Z,42.07
2017-07-07T02:16:22.444Z,42.27
2017-07-07T02:17:23.064Z,42.27
2017-07-07T02:18:23.732Z,42.27
2017-07-07T02:19:24.358Z,42.36
2017-07-07T02:20:24.974Z,42.46
2017-07-07T02:21:25.594Z,42.46
2017-07-07T02:22:26.212Z,42.55
2017-07-07T02:23:26.889Z,42.36
2017-07-07T02:24:27.508Z,42.74
2017-07-07T02:25:28.124Z,42.65
2017-07-07T02:26:28.745Z,42.74
2017-07-07T02:27:29.369Z,42.74
2017-07-07T02:28:30.035Z,42.74
2017-07-07T02:29:30.655Z,42.53
2017-07-07T02:30:31.274Z,42.74
2017-07-07T02:31:31.900Z,42.55
2017-07-07T02:32:32.514Z,42.74
2017-07-07T02:33:33.183Z,42.91
2017-07-07T02:34:33.803Z,42.63
2017-07-07T02:35:34.421Z,42.74
2017-07-07T02:36:35.079Z,43.10
2017-07-07T02:37:35.721Z,42.91
2017-07-07T02:38:36.376Z,42.91
2017-07-07T02:39:36.998Z,43.39
2017-07-07T02:40:37.648Z,43.49
2017-07-07T02:41:38.284Z,43.68
2017-07-07T02:42:38.911Z,43.39
2017-07-07T02:43:39.568Z,43.97
2017-07-07T02:44:40.187Z,43.87
2017-07-07T02:45:40.805Z,43.49
2017-07-07T02:46:41.459Z,43.39
2017-07-07T02:47:42.078Z,43.59
2017-07-07T02:48:42.747Z,43.10
2017-07-07T02:49:43.367Z,42.91
2017-07-07T02:50:43.987Z,43.01
2017-07-07T02:51:44.608Z,43.01
2017-07-07T02:52:45.226Z,43.30
2017-07-07T02:53:45.895Z,42.72
2017-07-07T02:54:46.514Z,42.94
2017-07-07T02:55:47.162Z,42.65
2017-07-07T02:56:47.765Z,42.91
2017-07-07T02:57:48.384Z,42.55
2017-07-07T02:58:49.051Z,42.36
2017-07-07T02:59:49.672Z,42.36
2017-07-07T03:00:50.291Z,42.34
2017-07-07T03:01:50.916Z,42.55
2017-07-07T03:02:51.532Z,42.34
2017-07-07T03:03:52.206Z,42.24
2017-07-07T03:04:52.822Z,42.24
2017-07-07T03:05:53.441Z,42.14
2017-07-07T03:06:54.061Z,42.24
2017-07-07T03:07:54.712Z,42.14
2017-07-07T03:08:55.367Z,42.17
2017-07-07T03:09:55.986Z,42.24
2017-07-07T03:10:56.608Z,42.14
2017-07-07T03:11:57.257Z,42.24
2017-07-07T03:12:57.876Z,42.05
2017-07-07T03:13:58.552Z,42.14
2017-07-07T03:14:59.168Z,42.07
2017-07-07T03:15:59.789Z,41.97
2017-07-07T03:17:00.406Z,42.07
2017-07-07T03:18:01.025Z,42.14
2017-07-07T03:19:01.694Z,42.44
2017-07-07T03:20:02.315Z,42.05
2017-07-07T03:21:02.967Z,42.05
2017-07-07T03:22:03.586Z,42.14
2017-07-07T03:23:04.205Z,42.14
2017-07-07T03:24:04.873Z,41.96
2017-07-07T03:25:05.496Z,41.77
2017-07-07T03:26:06.113Z,41.77
2017-07-07T03:27:06.738Z,41.86
2017-07-07T03:28:07.361Z,41.67
2017-07-07T03:29:08.026Z,42.24
2017-07-07T03:30:08.645Z,41.38
2017-07-07T03:31:09.269Z,41.67
2017-07-07T03:32:09.885Z,41.57
2017-07-07T03:33:10.504Z,41.77
2017-07-07T03:34:11.174Z,41.19
2017-07-07T03:35:11.799Z,42.05
2017-07-07T03:36:12.416Z,41.38
2017-07-07T03:37:13.034Z,41.77
2017-07-07T03:38:13.653Z,41.48
2017-07-07T03:39:14.346Z,41.48
2017-07-07T03:40:14.953Z,41.31
2017-07-07T03:41:15.571Z,41.11
2017-07-07T03:42:16.227Z,41.19
2017-07-07T03:43:16.825Z,41.09
2017-07-07T03:44:17.493Z,41.09
2017-07-07T03:45:18.112Z,41.38
2017-07-07T03:46:18.758Z,41.28
2017-07-07T03:47:19.363Z,41.00
2017-07-07T03:48:19.987Z,41.19
2017-07-07T03:49:20.659Z,41.19
2017-07-07T03:50:21.272Z,41.19
2017-07-07T03:51:21.889Z,41.00
2017-07-07T03:52:22.527Z,41.09
2017-07-07T03:53:23.155Z,41.19
2017-07-07T03:54:23.813Z,41.28
2017-07-07T03:55:24.438Z,40.90
2017-07-07T03:56:25.053Z,41.31
2017-07-07T03:57:25.705Z,41.38
2017-07-07T03:58:26.329Z,41.38
2017-07-07T03:59:26.996Z,41.28
2017-07-07T04:00:27.619Z,41.38
2017-07-07T04:01:28.274Z,41.38
2017-07-07T04:02:28.892Z,41.38
2017-07-07T04:03:29.508Z,41.38
2017-07-07T04:04:30.179Z,41.19
2017-07-07T04:05:30.798Z,41.19
2017-07-07T04:06:31.418Z,40.90
2017-07-07T04:07:32.043Z,40.81
2017-07-07T04:08:32.665Z,41.00
2017-07-07T04:09:33.336Z,40.81
2017-07-07T04:10:33.954Z,40.81
2017-07-07T04:11:34.599Z,41.00
2017-07-07T04:12:35.234Z,40.81
2017-07-07T04:13:35.841Z,41.00
2017-07-07T04:14:36.511Z,40.71
2017-07-07T04:15:37.134Z,40.83
2017-07-07T04:16:37.752Z,40.73
2017-07-07T04:17:38.373Z,40.73
2017-07-07T04:18:38.996Z,40.73
2017-07-07T04:19:39.695Z,40.54
2017-07-07T04:20:40.314Z,40.54
2017-07-07T04:21:40.936Z,40.73
2017-07-07T04:22:41.590Z,40.92
2017-07-07T04:23:42.210Z,40.35
2017-07-07T04:24:42.880Z,40.44
2017-07-07T04:25:43.504Z,40.35
2017-07-07T04:26:44.157Z,40.25
2017-07-07T04:27:44.810Z,39.87
2017-07-07T04:28:45.462Z,40.06
2017-07-07T04:29:46.173Z,39.77
2017-07-07T04:30:46.795Z,39.68
2017-07-07T04:31:47.449Z,39.77
2017-07-07T04:32:48.068Z,39.58
2017-07-07T04:33:48.714Z,39.48
2017-07-07T04:34:49.372Z,39.58
2017-07-07T04:35:49.993Z,39.48
2017-07-07T04:36:50.618Z,39.87
2017-07-07T04:37:51.237Z,39.87
2017-07-07T04:38:51.858Z,39.87
2017-07-07T04:39:52.526Z,40.06
2017-07-07T04:40:53.145Z,39.58
2017-07-07T04:41:53.798Z,39.58
2017-07-07T04:42:54.418Z,39.58
2017-07-07T04:43:55.039Z,39.58
2017-07-07T04:44:55.774Z,39.58
2017-07-07T04:45:56.375Z,39.58
2017-07-07T04:46:57.027Z,39.77
2017-07-07T04:47:57.681Z,39.77
2017-07-07T04:48:58.300Z,39.68
2017-07-07T04:49:58.969Z,39.87
2017-07-07T04:50:59.652Z,40.14
2017-07-07T04:52:00.257Z,39.94
2017-07-07T04:53:00.877Z,40.14
2017-07-07T04:54:01.496Z,39.94
2017-07-07T04:55:02.167Z,39.94
2017-07-07T04:56:02.814Z,40.14
2017-07-07T04:57:03.421Z,40.23
2017-07-07T04:58:04.043Z,40.23
2017-07-07T04:59:04.662Z,40.23
2017-07-07T05:00:05.332Z,40.04
2017-07-07T05:01:05.953Z,40.14
2017-07-07T05:02:06.575Z,39.94
2017-07-07T05:03:07.196Z,39.85
2017-07-07T05:04:07.818Z,39.85
2017-07-07T05:05:08.491Z,39.85
2017-07-07T05:06:09.139Z,39.94
2017-07-07T05:07:09.732Z,40.14
2017-07-07T05:08:10.352Z,40.04
2017-07-07T05:09:10.973Z,39.94
2017-07-07T05:10:11.646Z,40.14
2017-07-07T05:11:12.272Z,39.94
2017-07-07T05:12:12.888Z,39.94
2017-07-07T05:13:13.509Z,39.94
2017-07-07T05:14:14.126Z,40.14
2017-07-07T05:15:14.797Z,39.75
2017-07-07T05:16:15.442Z,39.75
2017-07-07T05:17:16.049Z,40.04
2017-07-07T05:18:16.702Z,40.14
2017-07-07T05:19:17.322Z,40.04
2017-07-07T05:20:18.027Z,40.04
2017-07-07T05:21:18.648Z,39.94
2017-07-07T05:22:19.300Z,39.94
2017-07-07T05:23:19.924Z,39.94
2017-07-07T05:24:20.540Z,39.75
2017-07-07T05:25:21.210Z,39.75
2017-07-07T05:26:21.830Z,40.04
2017-07-07T05:27:22.518Z,40.23
2017-07-07T05:28:23.122Z,40.52
2017-07-07T05:29:23.741Z,40.90
2017-07-07T05:30:24.412Z,40.71
2017-07-07T05:31:25.031Z,40.71
2017-07-07T05:32:25.653Z,40.81
2017-07-07T05:33:26.270Z,40.90
2017-07-07T05:34:26.890Z,40.81
2017-07-07T05:35:27.563Z,41.19
2017-07-07T05:36:28.183Z,41.48
2017-07-07T05:37:28.808Z,41.38
2017-07-07T05:38:29.424Z,41.19
2017-07-07T05:39:30.052Z,41.96
2017-07-07T05:40:30.724Z,41.77
2017-07-07T05:41:31.343Z,41.86
2017-07-07T05:42:31.997Z,41.96
2017-07-07T05:43:32.651Z,42.05
2017-07-07T05:44:33.272Z,42.24
2017-07-07T05:45:33.944Z,41.96
2017-07-07T05:46:34.568Z,42.34
2017-07-07T05:47:35.187Z,42.34
2017-07-07T05:48:35.808Z,42.44
2017-07-07T05:49:36.429Z,42.44
2017-07-07T05:50:37.103Z,42.53
2017-07-07T05:51:37.755Z,42.34
2017-07-07T05:52:38.390Z,42.36
2017-07-07T05:53:38.999Z,42.46
2017-07-07T05:54:39.622Z,42.46
2017-07-07T05:55:40.296Z,42.27
2017-07-07T05:56:40.917Z,42.17
2017-07-07T05:57:41.541Z,42.36
2017-07-07T05:58:42.195Z,42.74
2017-07-07T05:59:42.818Z,42.55
2017-07-07T06:00:43.514Z,42.65
2017-07-07T06:01:44.125Z,42.74
2017-07-07T06:02:44.746Z,42.55
2017-07-07T06:03:45.368Z,42.38
2017-07-07T06:04:45.991Z,42.38
2017-07-07T06:05:46.669Z,42.38
2017-07-07T06:06:47.288Z,42.29
2017-07-07T06:07:47.920Z,42.38
2017-07-07T06:08:48.573Z,42.10
2017-07-07T06:09:49.199Z,42.38
2017-07-07T06:10:49.819Z,42.19
2017-07-07T06:11:50.446Z,41.83
2017-07-07T06:12:51.067Z,42.00
2017-07-07T06:13:51.690Z,42.10
2017-07-07T06:14:52.318Z,42.30
2017-07-07T06:15:52.986Z,42.11
2017-07-07T06:16:53.609Z,41.93
2017-07-07T06:17:54.231Z,42.30
2017-07-07T06:18:54.853Z,42.11
2017-07-07T06:19:55.501Z,42.19
2017-07-07T06:20:56.159Z,42.11
2017-07-07T06:21:56.807Z,42.40
2017-07-07T06:22:57.462Z,42.40
2017-07-07T06:23:58.109Z,42.60
2017-07-07T06:24:58.747Z,42.60
2017-07-07T06:25:59.355Z,42.96
2017-07-07T06:26:59.977Z,42.69
2017-07-07T06:28:00.625Z,42.77
2017-07-07T06:29:01.279Z,42.60
2017-07-07T06:30:01.902Z,42.69
2017-07-07T06:31:02.601Z,42.69
2017-07-07T06:32:03.212Z,42.79
2017-07-07T06:33:03.835Z,42.69
2017-07-07T06:34:04.484Z,42.60
2017-07-07T06:35:05.093Z,43.10
2017-07-07T06:36:05.799Z,43.00
2017-07-07T06:37:06.422Z,42.33
2017-07-07T06:38:07.072Z,42.23
2017-07-07T06:39:07.715Z,42.23
2017-07-07T06:40:08.321Z,42.23
2017-07-07T06:41:08.993Z,42.04
2017-07-07T06:42:09.617Z,42.13
2017-07-07T06:43:10.241Z,42.23
2017-07-07T06:44:10.898Z,42.13
2017-07-07T06:45:11.504Z,42.13
2017-07-07T06:46:12.208Z,42.23
2017-07-07T06:47:12.847Z,42.33
2017-07-07T06:48:13.451Z,42.43
2017-07-07T06:49:14.074Z,42.61
2017-07-07T06:50:14.698Z,43.00
2017-07-07T06:51:15.375Z,42.81
2017-07-07T06:52:16.022Z,42.61
2017-07-07T06:53:16.637Z,43.10
2017-07-07T06:54:17.268Z,43.10
2017-07-07T06:55:17.920Z,43.19
2017-07-07T06:56:18.593Z,43.77
2017-07-07T06:57:19.214Z,43.48
2017-07-07T06:58:19.845Z,43.57
2017-07-07T06:59:20.464Z,43.48
2017-07-07T07:00:21.098Z,43.67
2017-07-07T07:01:21.794Z,43.77
2017-07-07T07:02:22.421Z,43.94
2017-07-07T07:03:23.048Z,43.84
2017-07-07T07:04:23.669Z,43.94
2017-07-07T07:05:24.297Z,44.13
2017-07-07T07:06:24.994Z,44.13
2017-07-07T07:07:25.630Z,44.24
2017-07-07T07:08:26.286Z,44.15
2017-07-07T07:09:26.910Z,44.15
2017-07-07T07:10:27.533Z,43.67
2017-07-07T07:11:28.207Z,43.87
2017-07-07T07:12:28.856Z,43.87
2017-07-07T07:13:29.492Z,43.67
2017-07-07T07:14:30.129Z,43.67
2017-07-07T07:15:30.741Z,44.06
2017-07-07T07:16:31.414Z,43.96
2017-07-07T07:17:32.037Z,43.77
2017-07-07T07:18:32.662Z,43.96
2017-07-07T07:19:33.289Z,44.24
2017-07-07T07:20:33.916Z,44.44
2017-07-07T07:21:34.584Z,44.15
2017-07-07T07:22:35.208Z,44.73
2017-07-07T07:23:35.833Z,44.73
2017-07-07T07:24:36.456Z,44.73
2017-07-07T07:25:37.077Z,44.63
2017-07-07T07:26:37.751Z,44.92
2017-07-07T07:27:38.375Z,45.01
2017-07-07T07:28:38.998Z,44.92
2017-07-07T07:29:39.623Z,45.01
2017-07-07T07:30:40.251Z,45.04
2017-07-07T07:31:40.929Z,45.23
2017-07-07T07:32:41.556Z,44.94
2017-07-07T07:33:42.177Z,45.04
2017-07-07T07:34:42.833Z,44.94
2017-07-07T07:35:43.436Z,44.65
2017-07-07T07:36:44.108Z,44.37
2017-07-07T07:37:44.731Z,44.56
2017-07-07T07:38:45.362Z,44.56
2017-07-07T07:39:45.981Z,44.56
2017-07-07T07:40:46.642Z,45.14
2017-07-07T07:41:47.348Z,44.87
2017-07-07T07:42:47.971Z,44.77
2017-07-07T07:43:48.605Z,44.84
2017-07-07T07:44:49.220Z,44.29
2017-07-07T07:45:49.869Z,44.58
2017-07-07T07:46:50.577Z,44.38
2017-07-07T07:47:51.227Z,44.58
2017-07-07T07:48:51.865Z,44.29
2017-07-07T07:49:52.500Z,44.20
2017-07-07T07:50:53.111Z,44.10
2017-07-07T07:51:53.812Z,44.29
2017-07-07T07:52:54.424Z,44.38
2017-07-07T07:53:55.047Z,43.71
2017-07-07T07:54:55.696Z,43.81
2017-07-07T07:55:56.308Z,44.48
2017-07-07T07:56:56.980Z,44.68
2017-07-07T07:57:57.603Z,44.10
2017-07-07T07:58:58.228Z,43.91
2017-07-07T07:59:58.850Z,44.10
2017-07-07T08:00:59.481Z,43.81
2017-07-07T08:02:00.148Z,43.43
2017-07-07T08:03:00.772Z,43.71
2017-07-07T08:04:01.396Z,43.62
2017-07-07T08:05:02.023Z,43.81
2017-07-07T08:06:02.644Z,44.00
2017-07-07T08:07:03.319Z,43.91
2017-07-07T08:08:03.941Z,43.62
2017-07-07T08:09:04.565Z,43.71
2017-07-07T08:10:05.188Z,43.81
2017-07-07T08:11:05.812Z,44.00
2017-07-07T08:12:06.486Z,43.71
2017-07-07T08:13:07.142Z,43.64
2017-07-07T08:14:07.791Z,44.02
2017-07-07T08:15:08.400Z,43.16
2017-07-07T08:16:09.050Z,42.97
2017-07-07T08:17:09.714Z,42.99
2017-07-07T08:18:10.338Z,42.41
2017-07-07T08:19:10.962Z,42.80
2017-07-07T08:20:11.593Z,42.70
2017-07-07T08:21:12.221Z,42.70
2017-07-07T08:22:12.926Z,42.53
2017-07-07T08:23:13.548Z,42.43
2017-07-07T08:24:14.175Z,42.32
2017-07-07T08:25:14.832Z,42.43
2017-07-07T08:26:15.457Z,42.33
2017-07-07T08:27:16.130Z,41.86
2017-07-07T08:28:16.782Z,41.86
2017-07-07T08:29:17.394Z,41.74
2017-07-07T08:30:18.023Z,40.58
2017-07-07T08:31:18.645Z,41.16
2017-07-07T08:32:19.317Z,40.88
2017-07-07T08:33:19.948Z,41.35
2017-07-07T08:34:20.570Z,41.45
2017-07-07T08:35:21.199Z,41.38
2017-07-07T08:36:21.828Z,40.89
2017-07-07T08:37:22.498Z,41.47
2017-07-07T08:38:23.121Z,41.18
2017-07-07T08:39:23.762Z,41.18
2017-07-07T08:40:24.368Z,40.70
2017-07-07T08:41:24.998Z,40.61
2017-07-07T08:42:25.671Z,40.51
2017-07-07T08:43:26.295Z,40.14
2017-07-07T08:44:26.918Z,39.56
2017-07-07T08:45:27.544Z,39.28
2017-07-07T08:46:28.166Z,39.26
2017-07-07T08:47:28.841Z,39.16
2017-07-07T08:48:29.467Z,39.26
2017-07-07T08:49:30.091Z,38.97
2017-07-07T08:50:30.716Z,38.39
2017-07-07T08:51:31.340Z,37.74
2017-07-07T08:52:32.016Z,38.70
2017-07-07T08:53:32.640Z,38.60
2017-07-07T08:54:33.364Z,38.70
2017-07-07T08:55:34.013Z,38.53
2017-07-07T08:56:34.611Z,38.14
2017-07-07T08:57:35.361Z,37.85
2017-07-07T08:58:36.001Z,38.24
2017-07-07T08:59:36.642Z,37.18
2017-07-07T09:00:37.251Z,36.69
2017-07-07T09:01:37.876Z,37.08
2017-07-07T09:02:38.553Z,37.27
2017-07-07T09:03:39.179Z,37.10
2017-07-07T09:04:39.800Z,36.91
2017-07-07T09:05:40.458Z,36.99
2017-07-07T09:06:41.127Z,36.91
2017-07-07T09:07:41.851Z,36.71
2017-07-07T09:08:42.558Z,36.91
2017-07-07T09:09:43.198Z,35.75
2017-07-07T09:10:43.823Z,36.33
2017-07-07T09:11:44.498Z,36.61
2017-07-07T09:12:45.249Z,36.43
2017-07-07T09:13:45.875Z,36.91
2017-07-07T09:14:46.556Z,37.02
2017-07-07T09:15:47.157Z,35.96
2017-07-07T09:16:47.781Z,35.28
2017-07-07T09:17:48.458Z,34.32
2017-07-07T09:18:49.142Z,34.98
2017-07-07T09:19:49.748Z,34.78
2017-07-07T09:20:50.402Z,34.01
2017-07-07T09:21:51.009Z,34.40
2017-07-07T09:22:51.757Z,35.27
2017-07-07T09:23:52.396Z,35.75
2017-07-07T09:24:53.023Z,35.75
2017-07-07T09:25:53.649Z,35.46
2017-07-07T09:26:54.297Z,35.75
2017-07-07T09:27:55.003Z,35.27
2017-07-07T09:28:55.642Z,34.78
2017-07-07T09:29:56.299Z,35.38
2017-07-07T09:30:56.948Z,35.96
2017-07-07T09:31:57.581Z,35.28
2017-07-07T09:32:58.289Z,35.00
2017-07-07T09:33:58.916Z,34.61
2017-07-07T09:34:59.530Z,34.52
2017-07-07T09:36:00.251Z,35.10
2017-07-07T09:37:00.913Z,35.10
2017-07-07T09:38:01.561Z,35.10
2017-07-07T09:39:02.187Z,35.38
2017-07-07T09:40:02.811Z,34.80
2017-07-07T09:41:03.484Z,35.02
2017-07-07T09:42:04.089Z,35.21
2017-07-07T09:43:04.766Z,34.44
2017-07-07T09:44:05.392Z,34.82
2017-07-07T09:45:06.071Z,34.44
2017-07-07T09:46:06.669Z,34.44
2017-07-07T09:47:07.400Z,34.44
2017-07-07T09:48:08.053Z,34.74
2017-07-07T09:49:08.680Z,34.36
2017-07-07T09:50:09.340Z,34.16
2017-07-07T09:51:10.071Z,34.45
2017-07-07T09:52:10.695Z,34.36
2017-07-07T09:53:11.382Z,34.16
2017-07-07T09:54:12.019Z,34.06
2017-07-07T09:55:12.635Z,34.45
2017-07-07T09:56:13.260Z,34.94
2017-07-07T09:57:13.931Z,34.45
2017-07-07T09:58:14.585Z,34.55
2017-07-07T09:59:15.234Z,34.84
2017-07-07T10:00:15.848Z,34.56
2017-07-07T10:01:16.474Z,34.06
2017-07-07T10:02:17.101Z,33.68
2017-07-07T10:03:17.808Z,34.06
2017-07-07T10:04:18.468Z,33.68
2017-07-07T10:05:19.128Z,33.87
2017-07-07T10:06:19.760Z,34.45
2017-07-07T10:07:20.371Z,34.36
2017-07-07T10:08:21.052Z,33.97
2017-07-07T10:09:21.733Z,34.06
2017-07-07T10:10:22.380Z,33.80
2017-07-07T10:11:23.033Z,34.08
2017-07-07T10:12:23.631Z,33.80
2017-07-07T10:13:24.308Z,33.31
2017-07-07T10:14:24.993Z,33.31
2017-07-07T10:15:25.637Z,32.92
2017-07-07T10:16:26.242Z,32.73
2017-07-07T10:17:26.925Z,33.02
2017-07-07T10:18:27.740Z,32.34
2017-07-07T10:19:28.426Z,32.17
2017-07-07T10:20:29.057Z,31.49
2017-07-07T10:21:29.741Z,31.40
2017-07-07T10:22:30.395Z,32.17
2017-07-07T10:23:31.072Z,32.75
2017-07-07T10:24:31.685Z,32.96
2017-07-07T10:25:32.346Z,31.70
2017-07-07T10:26:33.056Z,32.09
2017-07-07T10:27:33.710Z,31.99
2017-07-07T10:28:34.391Z,31.52
2017-07-07T10:29:35.071Z,31.52
2017-07-07T10:30:35.764Z,31.52
2017-07-07T10:31:36.420Z,31.13
2017-07-07T10:32:37.051Z,30.27
2017-07-07T10:33:37.775Z,30.27
2017-07-07T10:34:38.463Z,30.63
2017-07-07T10:35:39.120Z,30.93
2017-07-07T10:36:39.723Z,31.12
2017-07-07T10:37:40.349Z,31.02
2017-07-07T10:38:41.026Z,31.12
2017-07-07T10:39:41.652Z,31.31
2017-07-07T10:40:42.279Z,31.41
2017-07-07T10:41:42.939Z,31.22
2017-07-07T10:42:43.569Z,31.22
2017-07-07T10:43:44.243Z,31.41
2017-07-07T10:44:44.871Z,31.80
2017-07-07T10:45:45.498Z,31.80
2017-07-07T10:46:46.177Z,31.43
2017-07-07T10:47:46.777Z,31.23
2017-07-07T10:48:47.457Z,30.36
2017-07-07T10:49:48.116Z,30.47
2017-07-07T10:50:48.745Z,30.47
2017-07-07T10:51:49.375Z,30.29
2017-07-07T10:52:50.062Z,28.94
2017-07-07T10:53:50.737Z,28.55
2017-07-07T10:54:51.404Z,28.64
2017-07-07T10:55:52.006Z,28.64
2017-07-07T10:56:52.634Z,29.12
2017-07-07T10:57:53.310Z,28.92
2017-07-07T10:58:53.962Z,29.32
2017-07-07T10:59:54.591Z,29.60
2017-07-07T11:00:55.307Z,28.91
2017-07-07T11:01:55.931Z,28.52
2017-07-07T11:02:56.564Z,28.89
2017-07-07T11:03:57.240Z,28.78
2017-07-07T11:04:57.865Z,28.78
2017-07-07T11:05:58.542Z,29.08
2017-07-07T11:06:59.205Z,29.25
2017-07-07T11:07:59.843Z,29.16
2017-07-07T11:09:00.744Z,29.14
2017-07-07T11:10:01.405Z,29.43
2017-07-07T11:11:02.009Z,29.53
2017-07-07T11:12:02.698Z,30.21
2017-07-07T11:13:03.385Z,30.11
2017-07-07T11:14:04.088Z,30.59
2017-07-07T11:15:04.694Z,30.11
2017-07-07T11:16:05.325Z,30.49
2017-07-07T11:17:05.950Z,30.41
2017-07-07T11:18:06.657Z,31.49
2017-07-07T11:19:07.393Z,30.43
2017-07-07T11:20:08.114Z,30.35
2017-07-07T11:21:08.766Z,29.47
2017-07-07T11:22:09.393Z,29.38
2017-07-07T11:23:10.074Z,28.41
2017-07-07T11:24:10.783Z,28.51
2017-07-07T11:25:11.410Z,28.89
2017-07-07T11:26:12.040Z,28.78
2017-07-07T11:27:12.666Z,29.66
2017-07-07T11:28:13.294Z,29.17
2017-07-07T11:29:13.969Z,29.46
2017-07-07T11:30:14.597Z,29.17
2017-07-07T11:31:15.232Z,29.94
2017-07-07T11:32:15.854Z,29.35
2017-07-07T11:33:16.482Z,29.93
2017-07-07T11:34:17.160Z,29.94
2017-07-07T11:35:17.785Z,29.64
2017-07-07T11:36:18.410Z,29.46
2017-07-07T11:37:19.044Z,29.56
2017-07-07T11:38:19.672Z,30.04
2017-07-07T11:39:20.383Z,30.14
2017-07-07T11:40:21.005Z,29.66
2017-07-07T11:41:21.632Z,29.46
2017-07-07T11:42:22.259Z,29.17
2017-07-07T11:43:22.885Z,29.17
2017-07-07T11:44:23.563Z,28.69
2017-07-07T11:45:24.195Z,28.58
2017-07-07T11:46:24.852Z,28.67
2017-07-07T11:47:25.464Z,28.97
2017-07-07T11:48:26.090Z,29.16
2017-07-07T11:49:26.767Z,29.35
2017-07-07T11:50:27.396Z,29.05
2017-07-07T11:51:28.056Z,28.95
2017-07-07T11:52:28.665Z,28.85
2017-07-07T11:53:29.291Z,29.05
2017-07-07T11:54:29.968Z,28.56
2017-07-07T11:55:30.625Z,28.47
2017-07-07T11:56:31.235Z,28.66
2017-07-07T11:57:31.889Z,28.47
2017-07-07T11:58:32.529Z,29.24
2017-07-07T11:59:33.205Z,29.05
2017-07-07T12:00:33.845Z,29.45
2017-07-07T12:01:34.459Z,29.25
2017-07-07T12:02:35.085Z,29.45
2017-07-07T12:03:35.712Z,28.97
2017-07-07T12:04:36.390Z,28.39
2017-07-07T12:05:37.017Z,27.91
2017-07-07T12:06:37.644Z,28.00
2017-07-07T12:07:38.270Z,28.00
2017-07-07T12:08:38.929Z,28.00
2017-07-07T12:09:39.610Z,28.29
2017-07-07T12:10:40.239Z,28.58
2017-07-07T12:11:40.864Z,28.67
2017-07-07T12:12:41.496Z,28.67
2017-07-07T12:13:42.159Z,27.71
2017-07-07T12:14:42.834Z,27.71
2017-07-07T12:15:43.458Z,27.42
2017-07-07T12:16:44.084Z,27.42
2017-07-07T12:17:44.713Z,28.00
2017-07-07T12:18:45.341Z,27.42
2017-07-07T12:19:46.051Z,27.14
2017-07-07T12:20:46.677Z,26.45
2017-07-07T12:21:47.304Z,26.65
2017-07-07T12:22:47.930Z,26.07
2017-07-07T12:23:48.557Z,26.17
2017-07-07T12:24:49.233Z,26.26
2017-07-07T12:25:49.860Z,25.96
2017-07-07T12:26:50.498Z,26.25
2017-07-07T12:27:51.140Z,26.15
2017-07-07T12:28:51.755Z,26.34
2017-07-07T12:29:52.427Z,26.15
2017-07-07T12:30:53.055Z,26.06
2017-07-07T12:31:53.704Z,26.15
2017-07-07T12:32:54.325Z,26.34
2017-07-07T12:33:54.949Z,26.15
2017-07-07T12:34:55.623Z,26.73
2017-07-07T12:35:56.256Z,26.54
2017-07-07T12:36:56.884Z,26.25
2017-07-07T12:37:57.513Z,26.26
2017-07-07T12:38:58.167Z,26.92
2017-07-07T12:39:58.842Z,26.82
2017-07-07T12:40:59.452Z,26.84
2017-07-07T12:42:00.080Z,26.65
2017-07-07T12:43:00.706Z,27.02
2017-07-07T12:44:01.336Z,26.55
2017-07-07T12:45:02.010Z,27.23
2017-07-07T12:46:02.672Z,28.00
2017-07-07T12:47:03.298Z,27.92
2017-07-07T12:48:03.931Z,27.34
2017-07-07T12:49:04.581Z,27.24
2017-07-07T12:50:05.244Z,27.24
2017-07-07T12:51:05.871Z,26.95
2017-07-07T12:52:06.498Z,27.24
2017-07-07T12:53:07.127Z,27.34
2017-07-07T12:54:07.752Z,26.87
2017-07-07T12:55:08.429Z,27.35
2017-07-07T12:56:09.058Z,27.36
2017-07-07T12:57:09.683Z,27.09
2017-07-07T12:58:10.313Z,26.21
2017-07-07T12:59:10.939Z,26.42
2017-07-07T13:00:11.622Z,26.62
2017-07-07T13:01:12.251Z,26.25